Strona główna
METAR-TAF:

METAR-TAF

Lotnisko :

Port lotniczy Wagadugu

Wagadugu, Burkina Faso

Szerokość geograficzna: 12-21N, Długość geograficzna: 001-31W, wysokość: 316 m

Aktualna obserwacja pogody

Raport powstał 53 minut temu, godzina 23:00 UTC
Wiatr 6 kt od południowo-południowy wschód
Temperatura 29°C
Wilgotność 15%
Ciśnienie 1010 hPa
Widzialność 10 km lub więcej
Brak chmur poniżej 1500 m i brak chmur cumulonimbus

METAR: DFFD 192300Z 15006KT CAVOK 29/00 Q1010 NOSIG

czas: 23:53 (23:53 UTC)

Prognoza

Raport powstał 53 minut temu, godzina 23:00 UTC
Prognoza ważna od 20 godzina 00 UTC do 21 godzina 06 UTC
Wiatr 8 kt z kierunków zmiennych
Widzialność: 8000 m
Przejściowo
od 20 godzina 06 UTC do 20 godzina 10 UTC
Widzialność: 4000 m
pył
Przejściowo
od 20 godzina 17 UTC do 20 godzina 20 UTC
Widzialność: 4000 m
pył

TAF: DFFD 192300Z 2000/2106 VRB08KT 8000 NSC TEMPO 2006/2010 4000 DU TEMPO 2017/2020 4000 DU

Obserwacja i prognoza pogody dla ponad 4000 lotnisk (raport METAR i TAF).

Dostępne stacje oznaczono żółtymi i czerwonymi punktami na mapie.

Najedź kursorem aby zobaczyć nazwę stacji.

Kliknij aby zobaczyć obserwacje i prognozy pogody.

Aby zmienić mapę: kliknij na zielony przycisk z czarnym krzyżykiem, aby powiększyć; na zielony przycisk z myślnikiem, aby pomniejszyć; na zielone strzałki, aby przejść do map sąsiednich.


METAR-TAF: